sensor_id;sensor_type;location;lat;lon;timestamp;P1;durP1;ratioP1;P2;durP2;ratioP2
19705;SDS011;10003;52.506;4.700;2024-02-15T00:00:44;8.00;;;1.90;;
19705;SDS011;10003;52.506;4.700;2024-02-15T00:03:13;9.27;;;2.23;;
19705;SDS011;10003;52.506;4.700;2024-02-15T00:05:43;15.13;;;3.47;;
19705;SDS011;10003;52.506;4.700;2024-02-15T00:08:12;5.47;;;1.97;;
19705;SDS011;10003;52.506;4.700;2024-02-15T00:10:41;0.97;;;0.90;;
19705;SDS011;10003;52.506;4.700;2024-02-15T00:13:14;2.10;;;1.80;;
19705;SDS011;10003;52.506;4.700;2024-02-15T00:15:42;4.80;;;2.37;;
19705;SDS011;10003;52.506;4.700;2024-02-15T00:18:15;16.57;;;3.03;;
19705;SDS011;10003;52.506;4.700;2024-02-15T00:20:43;11.00;;;5.07;;
19705;SDS011;10003;52.506;4.700;2024-02-15T00:23:12;10.67;;;3.30;;
19705;SDS011;10003;52.506;4.700;2024-02-15T00:25:43;13.13;;;3.13;;
19705;SDS011;10003;52.506;4.700;2024-02-15T00:28:11;4.53;;;2.43;;
19705;SDS011;10003;52.506;4.700;2024-02-15T00:30:41;12.10;;;2.50;;
19705;SDS011;10003;52.506;4.700;2024-02-15T00:33:10;16.67;;;7.23;;
19705;SDS011;10003;52.506;4.700;2024-02-15T00:35:39;7.77;;;4.03;;
19705;SDS011;10003;52.506;4.700;2024-02-15T00:38:08;6.63;;;2.30;;
19705;SDS011;10003;52.506;4.700;2024-02-15T00:40:36;8.43;;;3.53;;
19705;SDS011;10003;52.506;4.700;2024-02-15T00:43:06;2.57;;;1.50;;
19705;SDS011;10003;52.506;4.700;2024-02-15T00:45:35;9.37;;;3.77;;
19705;SDS011;10003;52.506;4.700;2024-02-15T00:48:05;8.70;;;4.33;;
19705;SDS011;10003;52.506;4.700;2024-02-15T00:50:33;9.20;;;3.67;;
19705;SDS011;10003;52.506;4.700;2024-02-15T00:53:02;5.23;;;3.03;;
19705;SDS011;10003;52.506;4.700;2024-02-15T00:55:31;7.00;;;3.07;;
19705;SDS011;10003;52.506;4.700;2024-02-15T00:57:59;8.13;;;3.17;;
19705;SDS011;10003;52.506;4.700;2024-02-15T01:00:28;5.20;;;2.17;;
19705;SDS011;10003;52.506;4.700;2024-02-15T01:02:56;7.67;;;2.80;;
19705;SDS011;10003;52.506;4.700;2024-02-15T01:05:27;4.30;;;2.23;;
19705;SDS011;10003;52.506;4.700;2024-02-15T01:07:56;6.20;;;1.97;;
19705;SDS011;10003;52.506;4.700;2024-02-15T01:10:25;4.20;;;3.00;;
19705;SDS011;10003;52.506;4.700;2024-02-15T01:12:54;1.63;;;1.53;;
19705;SDS011;10003;52.506;4.700;2024-02-15T01:15:22;3.20;;;1.57;;
19705;SDS011;10003;52.506;4.700;2024-02-15T01:17:51;11.70;;;3.77;;
19705;SDS011;10003;52.506;4.700;2024-02-15T01:20:19;7.83;;;3.17;;
19705;SDS011;10003;52.506;4.700;2024-02-15T01:22:49;6.83;;;2.73;;
19705;SDS011;10003;52.506;4.700;2024-02-15T01:25:18;8.27;;;3.60;;
19705;SDS011;10003;52.506;4.700;2024-02-15T01:27:47;9.17;;;4.23;;
19705;SDS011;10003;52.506;4.700;2024-02-15T01:30:16;5.83;;;3.00;;
19705;SDS011;10003;52.506;4.700;2024-02-15T01:32:45;9.33;;;4.03;;
19705;SDS011;10003;52.506;4.700;2024-02-15T01:35:14;7.33;;;2.90;;
19705;SDS011;10003;52.506;4.700;2024-02-15T01:37:42;8.13;;;4.07;;
19705;SDS011;10003;52.506;4.700;2024-02-15T01:40:12;12.43;;;5.40;;
19705;SDS011;10003;52.506;4.700;2024-02-15T01:42:41;2.63;;;1.30;;
19705;SDS011;10003;52.506;4.700;2024-02-15T01:45:09;11.40;;;4.33;;
19705;SDS011;10003;52.506;4.700;2024-02-15T01:47:39;3.80;;;2.47;;
19705;SDS011;10003;52.506;4.700;2024-02-15T01:50:08;12.53;;;4.70;;
19705;SDS011;10003;52.506;4.700;2024-02-15T01:52:37;5.50;;;2.83;;
19705;SDS011;10003;52.506;4.700;2024-02-15T01:55:06;13.63;;;5.33;;
19705;SDS011;10003;52.506;4.700;2024-02-15T01:57:36;9.90;;;4.33;;
19705;SDS011;10003;52.506;4.700;2024-02-15T02:00:05;12.80;;;6.17;;
19705;SDS011;10003;52.506;4.700;2024-02-15T02:02:35;13.83;;;6.53;;
19705;SDS011;10003;52.506;4.700;2024-02-15T02:05:06;13.60;;;5.30;;
19705;SDS011;10003;52.506;4.700;2024-02-15T02:07:34;8.73;;;4.17;;
19705;SDS011;10003;52.506;4.700;2024-02-15T02:10:03;9.97;;;3.80;;
19705;SDS011;10003;52.506;4.700;2024-02-15T02:12:32;12.87;;;5.63;;
19705;SDS011;10003;52.506;4.700;2024-02-15T02:15:02;11.13;;;5.70;;
19705;SDS011;10003;52.506;4.700;2024-02-15T02:17:31;8.27;;;5.30;;
19705;SDS011;10003;52.506;4.700;2024-02-15T02:20:00;17.03;;;6.63;;
19705;SDS011;10003;52.506;4.700;2024-02-15T02:22:34;13.77;;;7.10;;
19705;SDS011;10003;52.506;4.700;2024-02-15T02:25:06;8.27;;;5.97;;
19705;SDS011;10003;52.506;4.700;2024-02-15T02:27:35;9.33;;;5.23;;
19705;SDS011;10003;52.506;4.700;2024-02-15T02:30:04;11.70;;;6.00;;
19705;SDS011;10003;52.506;4.700;2024-02-15T02:32:36;13.10;;;5.03;;
19705;SDS011;10003;52.506;4.700;2024-02-15T02:35:05;8.83;;;5.77;;
19705;SDS011;10003;52.506;4.700;2024-02-15T02:37:38;13.17;;;6.73;;
19705;SDS011;10003;52.506;4.700;2024-02-15T02:40:09;6.47;;;5.50;;
19705;SDS011;10003;52.506;4.700;2024-02-15T02:42:46;11.43;;;7.30;;
19705;SDS011;10003;52.506;4.700;2024-02-15T02:45:14;12.43;;;7.63;;
19705;SDS011;10003;52.506;4.700;2024-02-15T02:47:43;12.00;;;5.37;;
19705;SDS011;10003;52.506;4.700;2024-02-15T02:50:11;13.70;;;8.23;;
19705;SDS011;10003;52.506;4.700;2024-02-15T02:52:40;9.73;;;6.83;;
19705;SDS011;10003;52.506;4.700;2024-02-15T02:55:10;10.80;;;7.83;;
19705;SDS011;10003;52.506;4.700;2024-02-15T02:57:38;15.27;;;8.67;;
19705;SDS011;10003;52.506;4.700;2024-02-15T03:00:09;17.70;;;8.23;;
19705;SDS011;10003;52.506;4.700;2024-02-15T03:02:39;9.23;;;5.70;;
19705;SDS011;10003;52.506;4.700;2024-02-15T03:05:08;12.97;;;8.23;;
19705;SDS011;10003;52.506;4.700;2024-02-15T03:07:38;8.60;;;5.83;;
19705;SDS011;10003;52.506;4.700;2024-02-15T03:10:08;13.40;;;8.67;;
19705;SDS011;10003;52.506;4.700;2024-02-15T03:12:42;10.37;;;5.63;;
19705;SDS011;10003;52.506;4.700;2024-02-15T03:15:14;7.30;;;6.23;;
19705;SDS011;10003;52.506;4.700;2024-02-15T03:17:46;12.97;;;6.67;;
19705;SDS011;10003;52.506;4.700;2024-02-15T03:20:15;12.30;;;6.67;;
19705;SDS011;10003;52.506;4.700;2024-02-15T03:22:52;12.10;;;8.77;;
19705;SDS011;10003;52.506;4.700;2024-02-15T03:25:21;12.70;;;8.13;;
19705;SDS011;10003;52.506;4.700;2024-02-15T03:27:53;13.50;;;10.17;;
19705;SDS011;10003;52.506;4.700;2024-02-15T03:30:22;8.73;;;6.47;;
19705;SDS011;10003;52.506;4.700;2024-02-15T03:32:51;13.30;;;9.20;;
19705;SDS011;10003;52.506;4.700;2024-02-15T03:35:21;14.13;;;9.87;;
19705;SDS011;10003;52.506;4.700;2024-02-15T03:37:50;12.93;;;8.20;;
19705;SDS011;10003;52.506;4.700;2024-02-15T03:40:19;14.47;;;9.63;;
19705;SDS011;10003;52.506;4.700;2024-02-15T03:42:48;13.37;;;8.73;;
19705;SDS011;10003;52.506;4.700;2024-02-15T03:45:18;11.27;;;8.20;;
19705;SDS011;10003;52.506;4.700;2024-02-15T03:47:50;14.03;;;7.67;;
19705;SDS011;10003;52.506;4.700;2024-02-15T03:50:19;13.03;;;8.77;;
19705;SDS011;10003;52.506;4.700;2024-02-15T03:52:48;19.23;;;10.67;;
19705;SDS011;10003;52.506;4.700;2024-02-15T03:55:18;12.57;;;9.17;;
19705;SDS011;10003;52.506;4.700;2024-02-15T03:57:49;14.17;;;7.57;;
19705;SDS011;10003;52.506;4.700;2024-02-15T04:00:18;10.30;;;7.63;;
19705;SDS011;10003;52.506;4.700;2024-02-15T04:02:49;19.37;;;10.53;;
19705;SDS011;10003;52.506;4.700;2024-02-15T04:05:17;13.97;;;11.40;;
19705;SDS011;10003;52.506;4.700;2024-02-15T04:07:48;19.67;;;9.47;;
19705;SDS011;10003;52.506;4.700;2024-02-15T04:10:17;16.90;;;11.43;;
19705;SDS011;10003;52.506;4.700;2024-02-15T04:12:45;17.53;;;8.20;;
19705;SDS011;10003;52.506;4.700;2024-02-15T04:15:14;13.73;;;9.30;;
19705;SDS011;10003;52.506;4.700;2024-02-15T04:17:46;15.50;;;12.00;;
19705;SDS011;10003;52.506;4.700;2024-02-15T04:20:15;19.27;;;12.63;;
19705;SDS011;10003;52.506;4.700;2024-02-15T04:22:44;11.83;;;6.87;;
19705;SDS011;10003;52.506;4.700;2024-02-15T04:25:14;22.10;;;12.83;;
19705;SDS011;10003;52.506;4.700;2024-02-15T04:27:44;18.00;;;13.17;;
19705;SDS011;10003;52.506;4.700;2024-02-15T04:30:13;23.07;;;12.20;;
19705;SDS011;10003;52.506;4.700;2024-02-15T04:32:43;25.63;;;15.13;;
19705;SDS011;10003;52.506;4.700;2024-02-15T04:35:15;20.67;;;14.30;;
19705;SDS011;10003;52.506;4.700;2024-02-15T04:37:43;26.27;;;17.40;;
19705;SDS011;10003;52.506;4.700;2024-02-15T04:40:13;25.73;;;20.77;;
19705;SDS011;10003;52.506;4.700;2024-02-15T04:42:44;31.00;;;19.93;;
19705;SDS011;10003;52.506;4.700;2024-02-15T04:45:13;27.77;;;22.70;;
19705;SDS011;10003;52.506;4.700;2024-02-15T04:47:42;28.27;;;18.60;;
19705;SDS011;10003;52.506;4.700;2024-02-15T04:50:15;35.30;;;23.37;;
19705;SDS011;10003;52.506;4.700;2024-02-15T04:52:45;35.13;;;20.20;;
19705;SDS011;10003;52.506;4.700;2024-02-15T04:55:16;29.70;;;16.10;;
19705;SDS011;10003;52.506;4.700;2024-02-15T04:57:45;25.10;;;17.57;;
19705;SDS011;10003;52.506;4.700;2024-02-15T05:00:15;31.70;;;18.07;;
19705;SDS011;10003;52.506;4.700;2024-02-15T05:02:47;38.33;;;18.67;;
19705;SDS011;10003;52.506;4.700;2024-02-15T05:05:18;29.03;;;21.77;;
19705;SDS011;10003;52.506;4.700;2024-02-15T05:07:47;33.33;;;23.47;;
19705;SDS011;10003;52.506;4.700;2024-02-15T05:10:16;27.67;;;19.83;;
19705;SDS011;10003;52.506;4.700;2024-02-15T05:12:45;31.90;;;22.67;;
19705;SDS011;10003;52.506;4.700;2024-02-15T05:15:15;25.43;;;18.00;;
19705;SDS011;10003;52.506;4.700;2024-02-15T05:17:45;20.60;;;12.03;;
19705;SDS011;10003;52.506;4.700;2024-02-15T05:20:15;27.53;;;20.00;;
19705;SDS011;10003;52.506;4.700;2024-02-15T05:22:44;31.33;;;23.67;;
19705;SDS011;10003;52.506;4.700;2024-02-15T05:25:16;19.50;;;13.93;;
19705;SDS011;10003;52.506;4.700;2024-02-15T05:27:52;19.47;;;15.00;;
19705;SDS011;10003;52.506;4.700;2024-02-15T05:30:23;26.13;;;18.93;;
19705;SDS011;10003;52.506;4.700;2024-02-15T05:32:51;28.93;;;24.23;;
19705;SDS011;10003;52.506;4.700;2024-02-15T05:35:21;29.13;;;24.77;;
19705;SDS011;10003;52.506;4.700;2024-02-15T05:37:52;29.10;;;23.17;;
19705;SDS011;10003;52.506;4.700;2024-02-15T05:40:21;20.40;;;16.63;;
19705;SDS011;10003;52.506;4.700;2024-02-15T05:42:54;29.00;;;25.93;;
19705;SDS011;10003;52.506;4.700;2024-02-15T05:45:29;27.43;;;22.70;;
19705;SDS011;10003;52.506;4.700;2024-02-15T05:48:00;31.37;;;26.77;;
19705;SDS011;10003;52.506;4.700;2024-02-15T05:50:29;33.97;;;25.03;;
19705;SDS011;10003;52.506;4.700;2024-02-15T05:52:59;31.33;;;27.47;;
19705;SDS011;10003;52.506;4.700;2024-02-15T05:55:28;32.97;;;25.50;;
19705;SDS011;10003;52.506;4.700;2024-02-15T05:58:00;30.13;;;24.33;;
19705;SDS011;10003;52.506;4.700;2024-02-15T06:00:28;33.97;;;26.90;;
19705;SDS011;10003;52.506;4.700;2024-02-15T06:02:57;27.17;;;18.97;;
19705;SDS011;10003;52.506;4.700;2024-02-15T06:05:28;25.97;;;19.70;;
19705;SDS011;10003;52.506;4.700;2024-02-15T06:07:56;24.47;;;20.97;;
19705;SDS011;10003;52.506;4.700;2024-02-15T06:10:26;27.87;;;20.63;;
19705;SDS011;10003;52.506;4.700;2024-02-15T06:12:56;31.93;;;28.60;;
19705;SDS011;10003;52.506;4.700;2024-02-15T06:15:24;23.83;;;18.07;;
19705;SDS011;10003;52.506;4.700;2024-02-15T06:17:53;27.80;;;22.17;;
19705;SDS011;10003;52.506;4.700;2024-02-15T06:20:21;28.70;;;23.93;;
19705;SDS011;10003;52.506;4.700;2024-02-15T06:22:50;26.90;;;20.30;;
19705;SDS011;10003;52.506;4.700;2024-02-15T06:25:19;33.90;;;30.40;;
19705;SDS011;10003;52.506;4.700;2024-02-15T06:27:50;33.83;;;28.30;;
19705;SDS011;10003;52.506;4.700;2024-02-15T06:30:25;29.50;;;19.87;;
19705;SDS011;10003;52.506;4.700;2024-02-15T06:33:11;30.27;;;26.40;;
19705;SDS011;10003;52.506;4.700;2024-02-15T06:36:04;29.37;;;26.17;;
19705;SDS011;10003;52.506;4.700;2024-02-15T06:38:50;24.70;;;20.70;;
19705;SDS011;10003;52.506;4.700;2024-02-15T06:41:36;26.43;;;23.03;;
19705;SDS011;10003;52.506;4.700;2024-02-15T06:44:06;13.30;;;9.53;;
19705;SDS011;10003;52.506;4.700;2024-02-15T06:46:36;23.90;;;20.80;;
19705;SDS011;10003;52.506;4.700;2024-02-15T06:49:05;18.80;;;15.13;;
19705;SDS011;10003;52.506;4.700;2024-02-15T06:51:34;10.47;;;8.13;;
19705;SDS011;10003;52.506;4.700;2024-02-15T06:54:02;23.67;;;19.43;;
19705;SDS011;10003;52.506;4.700;2024-02-15T06:56:35;26.00;;;20.30;;
19705;SDS011;10003;52.506;4.700;2024-02-15T06:59:04;27.03;;;24.20;;
19705;SDS011;10003;52.506;4.700;2024-02-15T07:01:35;23.97;;;21.33;;
19705;SDS011;10003;52.506;4.700;2024-02-15T07:04:04;24.80;;;20.47;;
19705;SDS011;10003;52.506;4.700;2024-02-15T07:06:33;16.80;;;13.10;;
19705;SDS011;10003;52.506;4.700;2024-02-15T07:09:05;29.33;;;22.73;;
19705;SDS011;10003;52.506;4.700;2024-02-15T07:11:34;28.00;;;21.10;;
19705;SDS011;10003;52.506;4.700;2024-02-15T07:14:02;22.67;;;19.30;;
19705;SDS011;10003;52.506;4.700;2024-02-15T07:16:35;29.73;;;24.93;;
19705;SDS011;10003;52.506;4.700;2024-02-15T07:19:04;19.63;;;15.07;;
19705;SDS011;10003;52.506;4.700;2024-02-15T07:21:34;23.07;;;17.03;;
19705;SDS011;10003;52.506;4.700;2024-02-15T07:24:02;26.10;;;20.70;;
19705;SDS011;10003;52.506;4.700;2024-02-15T07:26:31;18.00;;;11.97;;
19705;SDS011;10003;52.506;4.700;2024-02-15T07:29:03;26.00;;;19.43;;
19705;SDS011;10003;52.506;4.700;2024-02-15T07:31:36;26.13;;;15.43;;
19705;SDS011;10003;52.506;4.700;2024-02-15T07:34:05;20.07;;;16.03;;
19705;SDS011;10003;52.506;4.700;2024-02-15T07:36:34;19.63;;;15.13;;
19705;SDS011;10003;52.506;4.700;2024-02-15T07:39:04;19.57;;;16.00;;
19705;SDS011;10003;52.506;4.700;2024-02-15T07:41:33;16.87;;;11.93;;
19705;SDS011;10003;52.506;4.700;2024-02-15T07:44:03;16.63;;;14.07;;
19705;SDS011;10003;52.506;4.700;2024-02-15T07:46:32;16.80;;;12.23;;
19705;SDS011;10003;52.506;4.700;2024-02-15T07:49:03;22.30;;;15.80;;
19705;SDS011;10003;52.506;4.700;2024-02-15T07:51:32;20.53;;;15.40;;
19705;SDS011;10003;52.506;4.700;2024-02-15T07:54:02;24.47;;;17.67;;
19705;SDS011;10003;52.506;4.700;2024-02-15T07:56:36;20.93;;;17.17;;
19705;SDS011;10003;52.506;4.700;2024-02-15T07:59:11;19.73;;;15.63;;
19705;SDS011;10003;52.506;4.700;2024-02-15T08:01:42;12.33;;;8.07;;
19705;SDS011;10003;52.506;4.700;2024-02-15T08:04:13;11.83;;;8.57;;
19705;SDS011;10003;52.506;4.700;2024-02-15T08:06:44;6.00;;;5.40;;
19705;SDS011;10003;52.506;4.700;2024-02-15T08:09:15;14.00;;;10.20;;
19705;SDS011;10003;52.506;4.700;2024-02-15T08:11:46;17.50;;;13.43;;
19705;SDS011;10003;52.506;4.700;2024-02-15T08:14:17;18.60;;;15.17;;
19705;SDS011;10003;52.506;4.700;2024-02-15T08:16:50;19.53;;;14.97;;
19705;SDS011;10003;52.506;4.700;2024-02-15T08:19:19;14.87;;;11.30;;
19705;SDS011;10003;52.506;4.700;2024-02-15T08:21:52;8.13;;;5.53;;
19705;SDS011;10003;52.506;4.700;2024-02-15T08:24:21;13.70;;;11.57;;
19705;SDS011;10003;52.506;4.700;2024-02-15T08:26:50;13.73;;;10.17;;
19705;SDS011;10003;52.506;4.700;2024-02-15T08:29:24;12.90;;;11.23;;
19705;SDS011;10003;52.506;4.700;2024-02-15T08:31:53;16.50;;;13.43;;
19705;SDS011;10003;52.506;4.700;2024-02-15T08:34:26;12.23;;;9.47;;
19705;SDS011;10003;52.506;4.700;2024-02-15T08:36:57;7.87;;;6.67;;
19705;SDS011;10003;52.506;4.700;2024-02-15T08:39:25;9.87;;;7.40;;
19705;SDS011;10003;52.506;4.700;2024-02-15T08:41:54;13.40;;;11.97;;
19705;SDS011;10003;52.506;4.700;2024-02-15T08:44:25;9.37;;;8.20;;
19705;SDS011;10003;52.506;4.700;2024-02-15T08:46:54;12.67;;;10.17;;
19705;SDS011;10003;52.506;4.700;2024-02-15T08:49:23;10.00;;;7.90;;
19705;SDS011;10003;52.506;4.700;2024-02-15T08:51:55;15.90;;;14.13;;
19705;SDS011;10003;52.506;4.700;2024-02-15T08:54:25;9.37;;;7.87;;
19705;SDS011;10003;52.506;4.700;2024-02-15T08:56:54;11.50;;;7.50;;
19705;SDS011;10003;52.506;4.700;2024-02-15T08:59:23;11.10;;;10.00;;
19705;SDS011;10003;52.506;4.700;2024-02-15T09:01:52;5.20;;;4.57;;
19705;SDS011;10003;52.506;4.700;2024-02-15T09:04:21;11.37;;;9.67;;
19705;SDS011;10003;52.506;4.700;2024-02-15T09:06:52;13.07;;;10.77;;
19705;SDS011;10003;52.506;4.700;2024-02-15T09:09:22;5.67;;;5.07;;
19705;SDS011;10003;52.506;4.700;2024-02-15T09:11:51;10.10;;;8.50;;
19705;SDS011;10003;52.506;4.700;2024-02-15T09:14:22;13.70;;;10.77;;
19705;SDS011;10003;52.506;4.700;2024-02-15T09:16:51;15.80;;;14.03;;
19705;SDS011;10003;52.506;4.700;2024-02-15T09:19:20;16.77;;;13.97;;
19705;SDS011;10003;52.506;4.700;2024-02-15T09:21:51;19.63;;;16.97;;
19705;SDS011;10003;52.506;4.700;2024-02-15T09:24:24;20.90;;;16.77;;
19705;SDS011;10003;52.506;4.700;2024-02-15T09:26:55;18.70;;;11.43;;
19705;SDS011;10003;52.506;4.700;2024-02-15T09:29:24;18.57;;;13.73;;
19705;SDS011;10003;52.506;4.700;2024-02-15T09:31:53;20.87;;;17.57;;
19705;SDS011;10003;52.506;4.700;2024-02-15T09:34:23;19.73;;;14.90;;
19705;SDS011;10003;52.506;4.700;2024-02-15T09:36:51;25.47;;;19.47;;
19705;SDS011;10003;52.506;4.700;2024-02-15T09:39:20;26.07;;;20.07;;
19705;SDS011;10003;52.506;4.700;2024-02-15T09:41:51;26.20;;;21.20;;
19705;SDS011;10003;52.506;4.700;2024-02-15T09:44:24;17.73;;;10.70;;
19705;SDS011;10003;52.506;4.700;2024-02-15T09:47:02;20.23;;;13.93;;
19705;SDS011;10003;52.506;4.700;2024-02-15T09:49:35;27.00;;;18.50;;
19705;SDS011;10003;52.506;4.700;2024-02-15T09:52:06;22.47;;;15.30;;
19705;SDS011;10003;52.506;4.700;2024-02-15T09:54:39;19.23;;;13.13;;
19705;SDS011;10003;52.506;4.700;2024-02-15T09:57:12;24.50;;;20.83;;
19705;SDS011;10003;52.506;4.700;2024-02-15T09:59:41;27.17;;;18.50;;
19705;SDS011;10003;52.506;4.700;2024-02-15T10:02:11;31.53;;;20.57;;
19705;SDS011;10003;52.506;4.700;2024-02-15T10:04:40;23.27;;;17.13;;
19705;SDS011;10003;52.506;4.700;2024-02-15T10:07:12;29.40;;;22.10;;
19705;SDS011;10003;52.506;4.700;2024-02-15T10:09:40;22.43;;;16.40;;
19705;SDS011;10003;52.506;4.700;2024-02-15T10:12:11;21.20;;;14.10;;
19705;SDS011;10003;52.506;4.700;2024-02-15T10:14:47;28.73;;;22.97;;
19705;SDS011;10003;52.506;4.700;2024-02-15T10:17:19;29.80;;;23.03;;
19705;SDS011;10003;52.506;4.700;2024-02-15T10:20:02;30.27;;;22.20;;
19705;SDS011;10003;52.506;4.700;2024-02-15T10:22:31;28.87;;;22.80;;
19705;SDS011;10003;52.506;4.700;2024-02-15T10:27:51;30.57;;;21.47;;
19705;SDS011;10003;52.506;4.700;2024-02-15T10:30:22;21.17;;;16.30;;
19705;SDS011;10003;52.506;4.700;2024-02-15T10:32:51;26.80;;;19.73;;
19705;SDS011;10003;52.506;4.700;2024-02-15T10:35:23;34.10;;;26.73;;
19705;SDS011;10003;52.506;4.700;2024-02-15T10:37:52;34.80;;;22.00;;
19705;SDS011;10003;52.506;4.700;2024-02-15T10:40:33;34.43;;;24.13;;
19705;SDS011;10003;52.506;4.700;2024-02-15T10:43:04;26.33;;;15.53;;
19705;SDS011;10003;52.506;4.700;2024-02-15T10:45:34;26.00;;;12.33;;
19705;SDS011;10003;52.506;4.700;2024-02-15T10:48:05;27.63;;;21.57;;
19705;SDS011;10003;52.506;4.700;2024-02-15T10:50:34;15.77;;;10.93;;
19705;SDS011;10003;52.506;4.700;2024-02-15T10:53:04;23.73;;;15.20;;
19705;SDS011;10003;52.506;4.700;2024-02-15T10:55:38;27.10;;;20.17;;
19705;SDS011;10003;52.506;4.700;2024-02-15T10:58:12;14.70;;;10.17;;
19705;SDS011;10003;52.506;4.700;2024-02-15T11:00:48;23.77;;;14.83;;
19705;SDS011;10003;52.506;4.700;2024-02-15T11:03:22;15.00;;;10.13;;
19705;SDS011;10003;52.506;4.700;2024-02-15T11:05:57;30.07;;;19.20;;
19705;SDS011;10003;52.506;4.700;2024-02-15T11:08:29;34.53;;;21.87;;
19705;SDS011;10003;52.506;4.700;2024-02-15T11:10:58;24.57;;;19.80;;
19705;SDS011;10003;52.506;4.700;2024-02-15T11:13:32;17.43;;;11.30;;
19705;SDS011;10003;52.506;4.700;2024-02-15T11:16:02;22.33;;;12.67;;
19705;SDS011;10003;52.506;4.700;2024-02-15T11:18:44;21.37;;;15.23;;
19705;SDS011;10003;52.506;4.700;2024-02-15T11:21:16;25.67;;;14.00;;
19705;SDS011;10003;52.506;4.700;2024-02-15T11:23:45;17.53;;;13.03;;
19705;SDS011;10003;52.506;4.700;2024-02-15T11:29:05;21.23;;;15.23;;
19705;SDS011;10003;52.506;4.700;2024-02-15T11:37:05;23.73;;;18.07;;
19705;SDS011;10003;52.506;4.700;2024-02-15T11:39:40;19.30;;;14.83;;
19705;SDS011;10003;52.506;4.700;2024-02-15T11:42:26;20.37;;;16.57;;
19705;SDS011;10003;52.506;4.700;2024-02-15T11:45:06;22.47;;;14.30;;
19705;SDS011;10003;52.506;4.700;2024-02-15T11:47:36;16.03;;;12.53;;
19705;SDS011;10003;52.506;4.700;2024-02-15T11:50:07;16.93;;;14.87;;
19705;SDS011;10003;52.506;4.700;2024-02-15T11:52:38;18.07;;;12.70;;
19705;SDS011;10003;52.506;4.700;2024-02-15T11:55:09;21.77;;;13.83;;
19705;SDS011;10003;52.506;4.700;2024-02-15T11:57:39;23.50;;;19.40;;
19705;SDS011;10003;52.506;4.700;2024-02-15T12:00:33;23.67;;;21.23;;
19705;SDS011;10003;52.506;4.700;2024-02-15T12:03:19;9.10;;;8.13;;
19705;SDS011;10003;52.506;4.700;2024-02-15T12:06:27;17.07;;;13.63;;
19705;SDS011;10003;52.506;4.700;2024-02-15T12:09:17;21.60;;;14.77;;
19705;SDS011;10003;52.506;4.700;2024-02-15T12:12:04;29.60;;;18.73;;
19705;SDS011;10003;52.506;4.700;2024-02-15T12:14:57;26.70;;;15.73;;
19705;SDS011;10003;52.506;4.700;2024-02-15T12:17:45;17.80;;;13.00;;
19705;SDS011;10003;52.506;4.700;2024-02-15T12:20:31;14.30;;;11.17;;
19705;SDS011;10003;52.506;4.700;2024-02-15T12:23:01;22.67;;;14.67;;
19705;SDS011;10003;52.506;4.700;2024-02-15T12:25:34;15.00;;;12.13;;
19705;SDS011;10003;52.506;4.700;2024-02-15T12:28:05;19.67;;;13.70;;
19705;SDS011;10003;52.506;4.700;2024-02-15T12:30:34;14.80;;;12.43;;
19705;SDS011;10003;52.506;4.700;2024-02-15T12:33:12;15.20;;;11.67;;
19705;SDS011;10003;52.506;4.700;2024-02-15T12:35:47;18.53;;;14.37;;
19705;SDS011;10003;52.506;4.700;2024-02-15T12:38:19;13.90;;;10.87;;
19705;SDS011;10003;52.506;4.700;2024-02-15T12:40:48;19.33;;;13.63;;
19705;SDS011;10003;52.506;4.700;2024-02-15T12:43:19;15.97;;;14.33;;
19705;SDS011;10003;52.506;4.700;2024-02-15T12:45:48;11.90;;;9.63;;
19705;SDS011;10003;52.506;4.700;2024-02-15T12:48:18;7.20;;;5.03;;
19705;SDS011;10003;52.506;4.700;2024-02-15T12:50:47;12.93;;;10.80;;
19705;SDS011;10003;52.506;4.700;2024-02-15T12:53:20;12.30;;;8.73;;
19705;SDS011;10003;52.506;4.700;2024-02-15T12:55:52;8.10;;;7.00;;
19705;SDS011;10003;52.506;4.700;2024-02-15T12:58:22;9.73;;;7.37;;
19705;SDS011;10003;52.506;4.700;2024-02-15T13:00:54;11.50;;;9.47;;
19705;SDS011;10003;52.506;4.700;2024-02-15T13:03:26;12.53;;;8.83;;
19705;SDS011;10003;52.506;4.700;2024-02-15T13:05:55;8.37;;;6.17;;
19705;SDS011;10003;52.506;4.700;2024-02-15T13:08:25;8.03;;;6.07;;
19705;SDS011;10003;52.506;4.700;2024-02-15T13:10:53;12.00;;;9.20;;
19705;SDS011;10003;52.506;4.700;2024-02-15T13:13:23;10.30;;;5.50;;
19705;SDS011;10003;52.506;4.700;2024-02-15T13:15:53;8.37;;;6.40;;
19705;SDS011;10003;52.506;4.700;2024-02-15T13:18:24;8.20;;;6.03;;
19705;SDS011;10003;52.506;4.700;2024-02-15T13:20:56;7.47;;;6.47;;
19705;SDS011;10003;52.506;4.700;2024-02-15T13:23:28;6.93;;;5.67;;
19705;SDS011;10003;52.506;4.700;2024-02-15T13:25:57;7.87;;;6.93;;
19705;SDS011;10003;52.506;4.700;2024-02-15T13:28:30;6.17;;;5.60;;
19705;SDS011;10003;52.506;4.700;2024-02-15T13:30:59;10.17;;;7.70;;
19705;SDS011;10003;52.506;4.700;2024-02-15T13:33:30;4.23;;;3.87;;
19705;SDS011;10003;52.506;4.700;2024-02-15T13:36:01;8.07;;;7.27;;
19705;SDS011;10003;52.506;4.700;2024-02-15T13:38:34;7.47;;;6.80;;
19705;SDS011;10003;52.506;4.700;2024-02-15T13:41:03;7.50;;;6.63;;
19705;SDS011;10003;52.506;4.700;2024-02-15T13:43:32;3.13;;;2.83;;
19705;SDS011;10003;52.506;4.700;2024-02-15T13:46:00;5.73;;;5.13;;
19705;SDS011;10003;52.506;4.700;2024-02-15T13:48:29;5.90;;;4.97;;
19705;SDS011;10003;52.506;4.700;2024-02-15T13:50:59;5.67;;;5.13;;
19705;SDS011;10003;52.506;4.700;2024-02-15T13:53:29;6.70;;;4.90;;
19705;SDS011;10003;52.506;4.700;2024-02-15T13:55:58;4.77;;;4.03;;
19705;SDS011;10003;52.506;4.700;2024-02-15T13:58:27;2.70;;;1.23;;
19705;SDS011;10003;52.506;4.700;2024-02-15T14:00:55;2.77;;;1.40;;
19705;SDS011;10003;52.506;4.700;2024-02-15T14:03:27;4.50;;;3.80;;
19705;SDS011;10003;52.506;4.700;2024-02-15T14:05:55;6.27;;;3.80;;
19705;SDS011;10003;52.506;4.700;2024-02-15T14:08:28;6.97;;;4.80;;
19705;SDS011;10003;52.506;4.700;2024-02-15T14:10:57;5.70;;;3.87;;
19705;SDS011;10003;52.506;4.700;2024-02-15T14:13:26;7.07;;;5.00;;
19705;SDS011;10003;52.506;4.700;2024-02-15T14:15:56;6.13;;;4.53;;
19705;SDS011;10003;52.506;4.700;2024-02-15T14:18:27;4.80;;;3.80;;
19705;SDS011;10003;52.506;4.700;2024-02-15T14:20:55;7.27;;;4.03;;
19705;SDS011;10003;52.506;4.700;2024-02-15T14:23:28;6.47;;;3.77;;
19705;SDS011;10003;52.506;4.700;2024-02-15T14:25:57;4.83;;;4.13;;
19705;SDS011;10003;52.506;4.700;2024-02-15T14:28:27;3.57;;;3.23;;
19705;SDS011;10003;52.506;4.700;2024-02-15T14:30:56;4.43;;;3.40;;
19705;SDS011;10003;52.506;4.700;2024-02-15T14:33:42;4.93;;;3.60;;
19705;SDS011;10003;52.506;4.700;2024-02-15T14:36:11;5.20;;;3.70;;
19705;SDS011;10003;52.506;4.700;2024-02-15T14:38:42;4.90;;;4.10;;
19705;SDS011;10003;52.506;4.700;2024-02-15T14:41:11;5.97;;;5.37;;
19705;SDS011;10003;52.506;4.700;2024-02-15T14:43:41;5.57;;;5.07;;
19705;SDS011;10003;52.506;4.700;2024-02-15T14:46:12;5.47;;;4.20;;
19705;SDS011;10003;52.506;4.700;2024-02-15T14:48:41;7.13;;;4.20;;
19705;SDS011;10003;52.506;4.700;2024-02-15T14:51:14;6.50;;;5.50;;
19705;SDS011;10003;52.506;4.700;2024-02-15T14:53:44;5.17;;;4.50;;
19705;SDS011;10003;52.506;4.700;2024-02-15T14:56:14;8.40;;;6.70;;
19705;SDS011;10003;52.506;4.700;2024-02-15T14:58:43;10.57;;;6.03;;
19705;SDS011;10003;52.506;4.700;2024-02-15T15:01:14;7.67;;;6.37;;
19705;SDS011;10003;52.506;4.700;2024-02-15T15:03:42;4.80;;;4.30;;